Ocean Navigator — WSC2552 — position and weather

sailwx.info

Track history (hours):
 
Tides and Currents Weather Stations Pressure Air Temp Water Temp Dewpoint Dewpoint Depression Visibility Wind Speed Wind Dir Waves Ship Positions

Ocean Navigator

Owner: OCEAN NAVIGATOR INC, SEATTLE, WA. More information available from US FCC via Universal Licensing System and Coast Guard Vessel Documentation Center.

Last reported at 2014-Dec-19 19:00 UTC. Time now 2014-Dec-21 21:33 UTC.
Position N 55°30' W 013°12'.

Type: Tow > 200 m length. MMSI: 366358000.

Wind from 140 at 30 knots

Waves 1.0 meters (3 feet)

Barometer 995.0 mb
Air temperature 6.1 ° C
Visibility: greater than 5.4 NM

Date/timePositionNaut miles runAvg speedWind from/ knotsBaromVisibWave heightAir tempDewpointWater temp
2014-Dec-19 19:00N 55°30' W 013°12'   140 / 30995.0 5.4 1.0 6.1
2014-Dec-14 13:33N 51°10' W 127°51'9 9.6
2014-Dec-14 12:34N 51°03' W 127°40'9 9.2
2014-Dec-14 11:34N 50°57' W 127°29'10 9.5
2014-Dec-14 10:34N 50°51' W 127°18'11 9.9
2014-Dec-14 09:27N 50°44' W 127°04'9 9.8
2014-Dec-14 08:29N 50°40' W 126°51'1210.0
2014-Dec-14 07:19N 50°31' W 126°39'1010.7
2014-Dec-14 06:22N 50°30' W 126°23'78 8.6
2014-Dec-13 21:15N 49°45' W 124°44'7 9.3
2014-Dec-13 20:32N 49°40' W 124°35'11 9.9
2014-Dec-13 19:24N 49°34' W 124°21'12 9.5
2014-Dec-13 18:06N 49°27' W 124°05'5 9.1
2014-Dec-13 17:31N 49°24' W 123°59'9 9.2
2014-Dec-13 16:30N 49°18' W 123°47'9 9.9
2014-Dec-13 15:33N 49°12' W 123°36'9 9.4
2014-Dec-13 14:34N 49°07' W 123°25'10 9.7
2014-Dec-13 13:33N 49°00' W 123°14'10 9.5
2014-Dec-13 12:33N 48°54' W 123°03'9 9.4
2014-Dec-13 11:34N 48°48' W 122°52'9 8.8
2014-Dec-13 10:33N 48°41' W 122°43'8 7.8
2014-Dec-13 09:33N 48°34' W 122°45'8 8.1
2014-Dec-13 08:33N 48°26' W 122°44'12 8.9
2014-Dec-13 07:11N 48°14' W 122°48'910.6
2014-Dec-13 06:20N 48°07' W 122°39'810.3
2014-Dec-13 05:33N 47°59' W 122°35'9 9.3
2014-Dec-13 04:33N 47°52' W 122°28'9 9.2
2014-Dec-13 03:33N 47°43' W 122°26'8 7.7
2014-Dec-13 02:34N 47°36' W 122°22'3 2.6
2014-Dec-13 01:34N 47°33' W 122°21'0 0.0
2014-Dec-13 00:34N 47°33' W 122°21'1 1.0
2014-Dec-12 23:33N 47°34' W 122°21'0 0.0
2014-Dec-12 22:33N 47°34' W 122°21'0 0.0
2014-Dec-12 21:33N 47°34' W 122°21'0 0.0
2014-Dec-12 20:33N 47°34' W 122°21'2 1.6
2014-Dec-12 19:34N 47°35' W 122°22'0 0.4
2014-Dec-12 18:33N 47°36' W 122°22'3 2.8
2014-Dec-12 17:33N 47°33' W 122°21'1 1.0
2014-Dec-12 16:33N 47°34' W 122°21'0 0.0
2014-Dec-12 15:33N 47°34' W 122°21'0 0.0
2014-Dec-12 14:33N 47°34' W 122°21'0 0.0
2014-Dec-12 13:33N 47°34' W 122°21'0 0.0
2014-Dec-12 12:33N 47°34' W 122°21'0 0.0
2014-Dec-12 11:26N 47°34' W 122°21'0 0.0
2014-Dec-12 10:32N 47°34' W 122°21'0 0.0
2014-Dec-12 09:34N 47°34' W 122°21'0 0.0
2014-Dec-12 08:33N 47°34' W 122°21'0 0.0
2014-Dec-12 07:33N 47°34' W 122°21'0 0.0
2014-Dec-12 06:34N 47°34' W 122°21'0 0.0
2014-Dec-12 05:33N 47°34' W 122°21'0 0.0
2014-Dec-12 04:31N 47°34' W 122°21'0 0.0
2014-Dec-12 03:33N 47°34' W 122°21'0 0.0
2014-Dec-12 02:33N 47°34' W 122°21'0 0.0
2014-Dec-12 01:33N 47°34' W 122°21'7 6.8
2014-Dec-12 00:34N 47°40' W 122°27'  
Track history (hours):
 
Tides and Currents Weather Stations Pressure Air Temp Water Temp Dewpoint Dewpoint Depression Visibility Wind Speed Wind Dir Waves Ship Positions

Ocean Navigator

Owner: OCEAN NAVIGATOR INC, SEATTLE, WA. More information available from US FCC via Universal Licensing System and Coast Guard Vessel Documentation Center.

Last reported at 2014-Dec-19 19:00 UTC. Time now 2014-Dec-21 21:33 UTC.
Position N 55°30' W 013°12'.

Type: Tow > 200 m length. MMSI: 366358000.

Wind from 140 at 30 knots

Waves 1.0 meters (3 feet)

Barometer 995.0 mb
Air temperature 6.1 ° C
Visibility: greater than 5.4 NM

Date/timePositionNaut miles runAvg speedWind from/ knotsBaromVisibWave heightAir tempDewpointWater temp
2014-Dec-19 19:00N 55°30' W 013°12'   140 / 30995.0 5.4 1.0 6.1
2014-Dec-14 13:33N 51°10' W 127°51'9 9.6
2014-Dec-14 12:34N 51°03' W 127°40'9 9.2
2014-Dec-14 11:34N 50°57' W 127°29'10 9.5
2014-Dec-14 10:34N 50°51' W 127°18'11 9.9
2014-Dec-14 09:27N 50°44' W 127°04'9 9.8
2014-Dec-14 08:29N 50°40' W 126°51'1210.0
2014-Dec-14 07:19N 50°31' W 126°39'1010.7
2014-Dec-14 06:22N 50°30' W 126°23'78 8.6
2014-Dec-13 21:15N 49°45' W 124°44'7 9.3
2014-Dec-13 20:32N 49°40' W 124°35'11 9.9
2014-Dec-13 19:24N 49°34' W 124°21'12 9.5
2014-Dec-13 18:06N 49°27' W 124°05'5 9.1
2014-Dec-13 17:31N 49°24' W 123°59'9 9.2
2014-Dec-13 16:30N 49°18' W 123°47'9 9.9
2014-Dec-13 15:33N 49°12' W 123°36'9 9.4
2014-Dec-13 14:34N 49°07' W 123°25'10 9.7
2014-Dec-13 13:33N 49°00' W 123°14'10 9.5
2014-Dec-13 12:33N 48°54' W 123°03'9 9.4
2014-Dec-13 11:34N 48°48' W 122°52'9 8.8
2014-Dec-13 10:33N 48°41' W 122°43'8 7.8
2014-Dec-13 09:33N 48°34' W 122°45'8 8.1
2014-Dec-13 08:33N 48°26' W 122°44'12 8.9
2014-Dec-13 07:11N 48°14' W 122°48'910.6
2014-Dec-13 06:20N 48°07' W 122°39'810.3
2014-Dec-13 05:33N 47°59' W 122°35'9 9.3
2014-Dec-13 04:33N 47°52' W 122°28'9 9.2
2014-Dec-13 03:33N 47°43' W 122°26'8 7.7
2014-Dec-13 02:34N 47°36' W 122°22'3 2.6
2014-Dec-13 01:34N 47°33' W 122°21'0 0.0
2014-Dec-13 00:34N 47°33' W 122°21'1 1.0
2014-Dec-12 23:33N 47°34' W 122°21'0 0.0
2014-Dec-12 22:33N 47°34' W 122°21'0 0.0
2014-Dec-12 21:33N 47°34' W 122°21'0 0.0
2014-Dec-12 20:33N 47°34' W 122°21'2 1.6
2014-Dec-12 19:34N 47°35' W 122°22'0 0.4
2014-Dec-12 18:33N 47°36' W 122°22'3 2.8
2014-Dec-12 17:33N 47°33' W 122°21'1 1.0
2014-Dec-12 16:33N 47°34' W 122°21'0 0.0
2014-Dec-12 15:33N 47°34' W 122°21'0 0.0
2014-Dec-12 14:33N 47°34' W 122°21'0 0.0
2014-Dec-12 13:33N 47°34' W 122°21'0 0.0
2014-Dec-12 12:33N 47°34' W 122°21'0 0.0
2014-Dec-12 11:26N 47°34' W 122°21'0 0.0
2014-Dec-12 10:32N 47°34' W 122°21'0 0.0
2014-Dec-12 09:34N 47°34' W 122°21'0 0.0
2014-Dec-12 08:33N 47°34' W 122°21'0 0.0
2014-Dec-12 07:33N 47°34' W 122°21'0 0.0
2014-Dec-12 06:34N 47°34' W 122°21'0 0.0
2014-Dec-12 05:33N 47°34' W 122°21'0 0.0
2014-Dec-12 04:31N 47°34' W 122°21'0 0.0
2014-Dec-12 03:33N 47°34' W 122°21'0 0.0
2014-Dec-12 02:33N 47°34' W 122°21'0 0.0
2014-Dec-12 01:33N 47°34' W 122°21'7 6.8
2014-Dec-12 00:34N 47°40' W 122°27'  

Dump ship's entire track history